Time;durP1;ratioP1;P1;durP2;ratioP2;P2;SDS_P1;SDS_P2;PMS_P1;PMS_P2;Temp;Humidity;BMP_temperature;BMP_pressure;BME280_temperature;BME280_humidity;BME280_pressure;Samples;Min_cycle;Max_cycle;Signal;HPM_P1;HPM_P2
2024/03/07 00:02:06;;;;;;;30.60;28.63;;;;;;;;;;5064794;28;20079;-63
2024/03/07 00:04:52;;;;;;;28.75;26.90;;;;;;;;;;5065808;28;21184;-62
2024/03/07 00:07:38;;;;;;;29.67;27.55;;;;;;;;;;5065120;28;20040;-62
2024/03/07 00:10:24;;;;;;;27.35;25.65;;;;;;;;;;5065257;28;20046;-62
2024/03/07 00:13:10;;;;;;;26.98;25.27;;;;;;;;;;5067501;28;20520;-62
2024/03/07 00:15:55;;;;;;;28.40;26.63;;;;;;;;;;5063539;28;20614;-62
2024/03/07 00:18:41;;;;;;;27.35;25.35;;;;;;;;;;5064404;28;20043;-62
2024/03/07 00:21:27;;;;;;;26.08;24.30;;;;;;;;;;5064613;28;20036;-62
2024/03/07 00:24:13;;;;;;;25.75;24.05;;;;;;;;;;5067764;28;20331;-62
2024/03/07 00:26:59;;;;;;;28.67;26.65;;;;;;;;;;5064279;28;20177;-62
2024/03/07 00:29:52;;;;;;;28.52;26.40;;;;;;;;;;5064881;28;20047;-62
2024/03/07 00:32:39;;;;;;;28.08;26.25;;;;;;;;;;5065938;28;20040;-62
2024/03/07 00:35:25;;;;;;;27.48;25.45;;;;;;;;;;5065903;28;20045;-62
2024/03/07 00:38:10;;;;;;;30.67;28.73;;;;;;;;;;5067383;28;20045;-62
2024/03/07 00:40:56;;;;;;;24.67;23.23;;;;;;;;;;5063720;28;20043;-62
2024/03/07 00:43:41;;;;;;;27.63;25.80;;;;;;;;;;5063987;28;20101;-62
2024/03/07 00:46:27;;;;;;;26.65;24.73;;;;;;;;;;5068335;28;20078;-62
2024/03/07 00:49:13;;;;;;;26.63;24.73;;;;;;;;;;5066164;28;20041;-62
2024/03/07 00:51:59;;;;;;;23.77;22.35;;;;;;;;;;5064401;28;20109;-62
2024/03/07 00:54:45;;;;;;;25.58;23.80;;;;;;;;;;5064277;28;20044;-62
2024/03/07 00:57:30;;;;;;;25.42;23.58;;;;;;;;;;5062901;28;20040;-62
2024/03/07 01:00:20;;;;;;;25.73;24.05;;;;;;;;;;5062822;28;20518;-62
2024/03/07 01:03:05;;;;;;;26.70;24.60;;;;;;;;;;5062192;28;20129;-62
2024/03/07 01:05:51;;;;;;;26.65;24.20;;;;;;;;;;5062747;28;20102;-62
2024/03/07 01:08:38;;;;;;;26.35;24.38;;;;;;;;;;5063344;28;20039;-62
2024/03/07 01:11:23;;;;;;;28.92;26.98;;;;;;;;;;5062033;28;20106;-62
2024/03/07 01:14:09;;;;;;;27.23;25.52;;;;;;;;;;5062657;28;20105;-62
2024/03/07 01:16:54;;;;;;;27.20;25.52;;;;;;;;;;5063503;28;20103;-62
2024/03/07 01:19:40;;;;;;;33.38;31.10;;;;;;;;;;5064840;28;20079;-62
2024/03/07 01:22:26;;;;;;;33.15;30.90;;;;;;;;;;5063236;28;20043;-62
2024/03/07 01:25:14;;;;;;;33.80;31.65;;;;;;;;;;5054073;28;20040;-62
2024/03/07 01:28:00;;;;;;;34.67;32.47;;;;;;;;;;5063624;28;20106;-62
2024/03/07 01:30:46;;;;;;;34.88;32.67;;;;;;;;;;5057470;28;20124;-62
2024/03/07 01:33:32;;;;;;;39.67;37.10;;;;;;;;;;5063329;28;20044;-62
2024/03/07 01:36:18;;;;;;;44.83;42.13;;;;;;;;;;5064508;28;20044;-61
2024/03/07 01:39:04;;;;;;;46.17;43.30;;;;;;;;;;5064146;28;20055;-62
2024/03/07 01:41:50;;;;;;;43.42;40.90;;;;;;;;;;5064932;28;20047;-61
2024/03/07 01:44:36;;;;;;;46.13;43.42;;;;;;;;;;5064805;28;20040;-61
2024/03/07 01:47:21;;;;;;;40.67;38.40;;;;;;;;;;5061837;28;20055;-61
2024/03/07 01:50:07;;;;;;;47.28;44.40;;;;;;;;;;5059246;28;20047;-61
2024/03/07 01:52:55;;;;;;;49.22;46.13;;;;;;;;;;5064141;28;20141;-62
2024/03/07 01:55:41;;;;;;;49.55;46.72;;;;;;;;;;5061488;28;20603;-61
2024/03/07 01:58:29;;;;;;;51.42;48.30;;;;;;;;;;5063905;28;20180;-61
2024/03/07 02:01:15;;;;;;;51.53;48.55;;;;;;;;;;5064277;28;20040;-61
2024/03/07 02:04:00;;;;;;;49.80;46.92;;;;;;;;;;5061635;28;20041;-61
2024/03/07 02:06:46;;;;;;;47.38;44.58;;;;;;;;;;5062022;28;20033;-61
2024/03/07 02:09:32;;;;;;;52.60;49.45;;;;;;;;;;5066257;28;20043;-61
2024/03/07 02:12:18;;;;;;;48.30;45.08;;;;;;;;;;5065737;28;20200;-61
2024/03/07 02:15:03;;;;;;;50.97;47.58;;;;;;;;;;5050947;28;20144;-61
2024/03/07 02:17:49;;;;;;;48.47;45.72;;;;;;;;;;5062823;28;20109;-62
2024/03/07 02:20:35;;;;;;;51.08;48.13;;;;;;;;;;5064670;28;20040;-62
2024/03/07 02:23:21;;;;;;;48.45;45.60;;;;;;;;;;5052059;28;20123;-62
2024/03/07 02:26:08;;;;;;;44.75;42.05;;;;;;;;;;5060854;28;20044;-62
2024/03/07 02:28:53;;;;;;;47.38;44.70;;;;;;;;;;5062396;28;20150;-61
2024/03/07 02:31:41;;;;;;;48.35;45.42;;;;;;;;;;5061776;28;20114;-61
2024/03/07 02:34:27;;;;;;;52.38;49.45;;;;;;;;;;5062225;28;20036;-61
2024/03/07 02:37:13;;;;;;;55.70;52.55;;;;;;;;;;5065948;28;20040;-61
2024/03/07 02:39:59;;;;;;;52.90;49.83;;;;;;;;;;5061917;28;20044;-61
2024/03/07 02:42:44;;;;;;;53.00;49.55;;;;;;;;;;5061908;28;20108;-61
2024/03/07 02:45:31;;;;;;;57.17;53.80;;;;;;;;;;5058597;28;20055;-61
2024/03/07 02:48:18;;;;;;;54.75;51.30;;;;;;;;;;5059881;28;20401;-61
2024/03/07 02:51:05;;;;;;;58.53;54.95;;;;;;;;;;5062015;28;20040;-61
2024/03/07 02:53:51;;;;;;;55.13;51.85;;;;;;;;;;5059948;28;20128;-61
2024/03/07 02:56:37;;;;;;;53.75;50.65;;;;;;;;;;5034039;28;20032;-61
2024/03/07 02:59:22;;;;;;;55.50;52.40;;;;;;;;;;5038159;28;20040;-61
2024/03/07 03:02:08;;;;;;;54.30;50.75;;;;;;;;;;5052670;28;20120;-61
2024/03/07 03:04:54;;;;;;;54.45;51.42;;;;;;;;;;5065779;28;20055;-61
2024/03/07 03:07:41;;;;;;;55.42;51.95;;;;;;;;;;5066662;28;20032;-62
2024/03/07 03:10:28;;;;;;;55.78;52.67;;;;;;;;;;5066377;28;20076;-61
2024/03/07 03:13:15;;;;;;;57.05;53.95;;;;;;;;;;5063777;28;20051;-61
2024/03/07 03:16:04;;;;;;;55.72;52.42;;;;;;;;;;5058213;28;20477;-62
2024/03/07 03:18:50;;;;;;;55.10;51.92;;;;;;;;;;5064228;28;20106;-62
2024/03/07 03:21:36;;;;;;;58.42;55.05;;;;;;;;;;5063644;28;20059;-62
2024/03/07 03:24:22;;;;;;;61.75;58.22;;;;;;;;;;5066326;28;20480;-62
2024/03/07 03:27:08;;;;;;;55.03;51.83;;;;;;;;;;5060873;28;20056;-62
2024/03/07 03:29:53;;;;;;;59.92;56.22;;;;;;;;;;5064349;28;20643;-62
2024/03/07 03:32:40;;;;;;;58.65;54.85;;;;;;;;;;5066096;28;20040;-60
2024/03/07 03:35:25;;;;;;;56.67;53.28;;;;;;;;;;5060011;28;20452;-62
2024/03/07 03:38:11;;;;;;;58.28;55.08;;;;;;;;;;5062300;28;20051;-62
2024/03/07 03:40:57;;;;;;;56.38;53.22;;;;;;;;;;5048459;28;20038;-62
2024/03/07 03:43:43;;;;;;;56.90;53.40;;;;;;;;;;5062873;28;20045;-62
2024/03/07 03:46:28;;;;;;;59.08;55.67;;;;;;;;;;5057775;28;20047;-62
2024/03/07 03:49:14;;;;;;;61.55;57.58;;;;;;;;;;5060026;28;20036;-62
2024/03/07 03:51:59;;;;;;;56.00;52.60;;;;;;;;;;5050308;28;20028;-61
2024/03/07 03:54:45;;;;;;;59.03;55.25;;;;;;;;;;5063196;28;20566;-61
2024/03/07 03:57:33;;;;;;;53.85;50.95;;;;;;;;;;5060039;28;20817;-62
2024/03/07 04:00:18;;;;;;;55.03;51.95;;;;;;;;;;5063103;28;20055;-62
2024/03/07 04:03:04;;;;;;;56.17;52.97;;;;;;;;;;5062521;28;20102;-61
2024/03/07 04:05:49;;;;;;;55.20;52.20;;;;;;;;;;5065716;28;20108;-61
2024/03/07 04:08:36;;;;;;;58.28;54.70;;;;;;;;;;5059604;28;20537;-61
2024/03/07 04:11:22;;;;;;;53.80;50.88;;;;;;;;;;5062500;28;20046;-61
2024/03/07 04:14:08;;;;;;;56.63;53.55;;;;;;;;;;5064678;28;20037;-61
2024/03/07 04:16:56;;;;;;;57.17;53.90;;;;;;;;;;5063159;28;20036;-61
2024/03/07 04:19:43;;;;;;;58.65;55.20;;;;;;;;;;5059994;28;20099;-61
2024/03/07 04:22:28;;;;;;;55.85;52.50;;;;;;;;;;5069125;28;20043;-61
2024/03/07 04:25:14;;;;;;;56.22;53.13;;;;;;;;;;5059843;28;20049;-61
2024/03/07 04:28:00;;;;;;;57.10;53.35;;;;;;;;;;5059756;28;20106;-62
2024/03/07 04:30:49;;;;;;;55.90;52.92;;;;;;;;;;5060704;28;20424;-62
2024/03/07 04:33:34;;;;;;;60.35;56.47;;;;;;;;;;5062477;28;20644;-62
2024/03/07 04:36:20;;;;;;;53.38;50.40;;;;;;;;;;5065052;28;20877;-62
2024/03/07 04:39:24;;;;;;;52.20;49.22;;;;;;;;;;5064370;28;20037;-62
2024/03/07 04:42:10;;;;;;;54.92;51.75;;;;;;;;;;5061860;28;20098;-61
2024/03/07 04:44:56;;;;;;;55.40;52.05;;;;;;;;;;5061011;28;20033;-61
2024/03/07 04:47:42;;;;;;;55.22;52.22;;;;;;;;;;5066001;28;20375;-62
2024/03/07 04:50:28;;;;;;;54.13;51.10;;;;;;;;;;5065075;28;20040;-62
2024/03/07 04:53:14;;;;;;;49.92;47.10;;;;;;;;;;5065321;28;20490;-62
2024/03/07 04:55:59;;;;;;;50.15;46.97;;;;;;;;;;5062568;28;20123;-62
2024/03/07 04:58:45;;;;;;;48.28;45.58;;;;;;;;;;5064460;28;20049;-62
2024/03/07 05:01:31;;;;;;;46.97;44.28;;;;;;;;;;5063927;28;20193;-62
2024/03/07 05:04:18;;;;;;;51.72;48.08;;;;;;;;;;5066320;28;20480;-61
2024/03/07 05:07:03;;;;;;;45.20;42.85;;;;;;;;;;5064316;28;20070;-62
2024/03/07 05:09:49;;;;;;;48.95;46.17;;;;;;;;;;5067367;28;20083;-62
2024/03/07 05:12:36;;;;;;;40.53;38.03;;;;;;;;;;5061147;28;20036;-62
2024/03/07 05:15:25;;;;;;;49.83;47.08;;;;;;;;;;5061422;28;20439;-62
2024/03/07 05:18:12;;;;;;;49.53;46.72;;;;;;;;;;5063460;28;20540;-62
2024/03/07 05:21:08;;;;;;;49.08;46.28;;;;;;;;;;5062226;28;20377;-62
2024/03/07 05:24:04;;;;;;;51.15;48.35;;;;;;;;;;5063785;28;20647;-62
2024/03/07 05:26:52;;;;;;;53.92;51.03;;;;;;;;;;5062571;28;20040;-61
2024/03/07 05:29:39;;;;;;;56.28;53.22;;;;;;;;;;5067299;28;20047;-62
2024/03/07 05:32:26;;;;;;;54.78;51.53;;;;;;;;;;5063010;28;20693;-61
2024/03/07 05:35:11;;;;;;;52.33;49.35;;;;;;;;;;5064948;28;20052;-61
2024/03/07 05:37:57;;;;;;;52.47;49.65;;;;;;;;;;5065515;28;20489;-61
2024/03/07 05:40:44;;;;;;;53.58;50.67;;;;;;;;;;5062818;28;20041;-61
2024/03/07 05:43:30;;;;;;;56.72;53.50;;;;;;;;;;5066715;28;20136;-61
2024/03/07 05:46:16;;;;;;;51.45;48.55;;;;;;;;;;5061220;28;20041;-60
2024/03/07 05:49:03;;;;;;;53.78;50.67;;;;;;;;;;5067920;28;20079;-60
2024/03/07 05:51:48;;;;;;;53.42;50.20;;;;;;;;;;5062285;28;20047;-61
2024/03/07 05:54:34;;;;;;;49.50;46.78;;;;;;;;;;5060485;28;20086;-60
2024/03/07 05:57:20;;;;;;;54.25;51.00;;;;;;;;;;5061620;28;20077;-60
2024/03/07 06:00:09;;;;;;;53.08;49.90;;;;;;;;;;5060269;28;20143;-60
2024/03/07 06:02:56;;;;;;;54.00;50.75;;;;;;;;;;5065565;28;20543;-60
2024/03/07 06:05:42;;;;;;;55.72;52.67;;;;;;;;;;5059129;28;20181;-60
2024/03/07 06:08:28;;;;;;;54.88;51.55;;;;;;;;;;5063942;28;20075;-60
2024/03/07 06:11:19;;;;;;;48.95;46.15;;;;;;;;;;5050399;28;20370;-60
2024/03/07 06:14:06;;;;;;;46.47;43.97;;;;;;;;;;5062392;28;20041;-60
2024/03/07 06:16:52;;;;;;;47.40;44.85;;;;;;;;;;5061189;28;20041;-60
2024/03/07 06:19:38;;;;;;;48.95;46.08;;;;;;;;;;5064474;28;20048;-61
2024/03/07 06:22:24;;;;;;;54.83;51.60;;;;;;;;;;5061971;28;20029;-61
2024/03/07 06:25:18;;;;;;;47.75;44.45;;;;;;;;;;5064149;28;20052;-61
2024/03/07 06:28:10;;;;;;;46.33;43.78;;;;;;;;;;5063047;28;20048;-61
2024/03/07 06:30:56;;;;;;;44.65;41.92;;;;;;;;;;5061097;28;20051;-61
2024/03/07 06:33:42;;;;;;;43.53;41.05;;;;;;;;;;5064513;28;20071;-61
2024/03/07 06:36:28;;;;;;;42.90;40.45;;;;;;;;;;5061403;28;20039;-61
2024/03/07 06:39:13;;;;;;;47.00;43.97;;;;;;;;;;5059454;28;20044;-60
2024/03/07 06:42:00;;;;;;;50.42;47.55;;;;;;;;;;5059100;28;20041;-61
2024/03/07 06:44:45;;;;;;;49.38;46.67;;;;;;;;;;5059287;28;20127;-61
2024/03/07 06:47:31;;;;;;;52.75;49.85;;;;;;;;;;5059777;28;20132;-61
2024/03/07 06:50:19;;;;;;;41.28;38.35;;;;;;;;;;5062160;28;20052;-61
2024/03/07 06:53:09;;;;;;;38.70;36.50;;;;;;;;;;5061701;28;20040;-60
2024/03/07 06:55:55;;;;;;;39.45;37.25;;;;;;;;;;5065277;28;20086;-61
2024/03/07 06:58:42;;;;;;;37.30;34.88;;;;;;;;;;5070045;28;20493;-60
2024/03/07 07:01:29;;;;;;;33.10;31.20;;;;;;;;;;5066026;28;20052;-60
2024/03/07 07:04:15;;;;;;;36.05;33.95;;;;;;;;;;5072399;28;20113;-61
2024/03/07 07:07:00;;;;;;;37.35;35.30;;;;;;;;;;5072320;28;20036;-61
2024/03/07 07:09:46;;;;;;;42.35;39.85;;;;;;;;;;5069277;28;20086;-61
2024/03/07 07:12:32;;;;;;;45.55;42.88;;;;;;;;;;5066284;28;20033;-61
2024/03/07 07:15:18;;;;;;;49.13;46.38;;;;;;;;;;5070114;28;20148;-61
2024/03/07 07:18:04;;;;;;;40.28;38.05;;;;;;;;;;5066460;28;20044;-61
2024/03/07 07:20:51;;;;;;;48.17;45.55;;;;;;;;;;5063701;28;20508;-61
2024/03/07 07:23:37;;;;;;;51.90;49.00;;;;;;;;;;5067944;28;20113;-61
2024/03/07 07:26:23;;;;;;;54.17;51.08;;;;;;;;;;5066267;28;20113;-61
2024/03/07 07:29:09;;;;;;;55.92;52.72;;;;;;;;;;5066023;28;20047;-61
2024/03/07 07:31:56;;;;;;;49.70;46.95;;;;;;;;;;5065416;28;20119;-61
2024/03/07 07:34:42;;;;;;;48.45;45.83;;;;;;;;;;5064837;28;20048;-61
2024/03/07 07:37:28;;;;;;;51.55;48.85;;;;;;;;;;5063808;28;20446;-61
2024/03/07 07:40:22;;;;;;;53.70;50.63;;;;;;;;;;5067053;28;20040;-61
2024/03/07 07:43:11;;;;;;;54.03;51.13;;;;;;;;;;5064291;28;20048;-61
2024/03/07 07:45:57;;;;;;;54.67;51.47;;;;;;;;;;5062265;28;20036;-61
2024/03/07 07:48:42;;;;;;;44.92;42.55;;;;;;;;;;5068777;28;20047;-61
2024/03/07 07:51:28;;;;;;;52.15;49.15;;;;;;;;;;5067990;28;20123;-61
2024/03/07 07:54:14;;;;;;;54.53;51.47;;;;;;;;;;5063922;28;20035;-61
2024/03/07 07:57:00;;;;;;;52.33;49.03;;;;;;;;;;5068738;28;20028;-61
2024/03/07 07:59:46;;;;;;;48.78;45.97;;;;;;;;;;5062855;28;20064;-61
2024/03/07 08:02:31;;;;;;;47.92;45.30;;;;;;;;;;5062669;28;20055;-61
2024/03/07 08:05:22;;;;;;;44.65;41.85;;;;;;;;;;5064687;28;20039;-61
2024/03/07 08:08:11;;;;;;;36.97;34.78;;;;;;;;;;5064609;28;20537;-63
2024/03/07 08:10:56;;;;;;;34.40;32.30;;;;;;;;;;5064147;28;20040;-61
2024/03/07 08:13:42;;;;;;;34.80;32.78;;;;;;;;;;5064756;28;20067;-61
2024/03/07 08:16:28;;;;;;;36.28;34.22;;;;;;;;;;5063841;28;20020;-61
2024/03/07 08:19:14;;;;;;;40.47;38.28;;;;;;;;;;5066470;28;20052;-61
2024/03/07 08:22:00;;;;;;;37.30;35.25;;;;;;;;;;5065034;28;20085;-61
2024/03/07 08:24:45;;;;;;;41.40;39.00;;;;;;;;;;5066670;28;20040;-61
2024/03/07 08:27:31;;;;;;;39.88;37.67;;;;;;;;;;5060947;28;20068;-62
2024/03/07 08:30:16;;;;;;;43.88;41.35;;;;;;;;;;5066449;28;21148;-61
2024/03/07 08:33:04;;;;;;;49.55;46.75;;;;;;;;;;5067669;28;20079;-61
2024/03/07 08:35:52;;;;;;;53.28;50.28;;;;;;;;;;5051396;28;20028;-61
2024/03/07 08:38:39;;;;;;;63.50;59.65;;;;;;;;;;5063630;28;20044;-61
2024/03/07 08:41:24;;;;;;;67.85;64.10;;;;;;;;;;5063574;28;21080;-61
2024/03/07 08:44:10;;;;;;;65.47;61.85;;;;;;;;;;5064733;28;20462;-61
2024/03/07 08:46:56;;;;;;;60.72;57.47;;;;;;;;;;5065696;28;20044;-62
2024/03/07 08:49:41;;;;;;;44.03;41.53;;;;;;;;;;5064590;28;20041;-62
2024/03/07 08:52:27;;;;;;;40.42;37.65;;;;;;;;;;5062447;28;20048;-61
2024/03/07 08:55:20;;;;;;;46.60;43.97;;;;;;;;;;5066050;28;20052;-62
2024/03/07 08:58:06;;;;;;;41.65;39.17;;;;;;;;;;5064188;28;20040;-62
2024/03/07 09:00:52;;;;;;;37.92;35.25;;;;;;;;;;5063708;28;20515;-61
2024/03/07 09:03:38;;;;;;;38.83;36.63;;;;;;;;;;5062700;28;20047;-61
2024/03/07 09:06:23;;;;;;;37.25;35.03;;;;;;;;;;5061929;28;20130;-62
2024/03/07 09:09:09;;;;;;;34.78;32.72;;;;;;;;;;5064163;28;20769;-61
2024/03/07 09:11:54;;;;;;;40.88;38.47;;;;;;;;;;5064543;28;20306;-62
2024/03/07 09:14:40;;;;;;;32.30;30.35;;;;;;;;;;5065048;28;20418;-61
2024/03/07 09:17:26;;;;;;;32.47;30.67;;;;;;;;;;5066324;28;20120;-61
2024/03/07 09:20:15;;;;;;;29.50;27.58;;;;;;;;;;5050180;28;20028;-61
2024/03/07 09:23:01;;;;;;;31.23;29.35;;;;;;;;;;5064982;28;20044;-61
2024/03/07 09:25:46;;;;;;;30.20;28.40;;;;;;;;;;5064129;28;20052;-61
2024/03/07 09:28:32;;;;;;;32.50;30.67;;;;;;;;;;5063452;28;20040;-61
2024/03/07 09:31:18;;;;;;;32.80;30.88;;;;;;;;;;5062932;28;20040;-61
2024/03/07 09:34:04;;;;;;;32.20;30.45;;;;;;;;;;5064738;28;20040;-61
2024/03/07 09:36:50;;;;;;;30.85;29.08;;;;;;;;;;5063488;28;20060;-62
2024/03/07 09:39:42;;;;;;;31.65;29.85;;;;;;;;;;5089289;27;20413;-62
2024/03/07 09:42:30;;;;;;;31.85;30.05;;;;;;;;;;5086996;28;20454;-63
2024/03/07 09:45:17;;;;;;;30.98;29.10;;;;;;;;;;5088896;28;20185;-62
2024/03/07 09:48:04;;;;;;;32.83;30.67;;;;;;;;;;5089382;28;20064;-63
2024/03/07 09:50:52;;;;;;;27.95;26.35;;;;;;;;;;5086962;28;21182;-62
2024/03/07 09:53:38;;;;;;;33.15;31.27;;;;;;;;;;5085619;28;20051;-62
2024/03/07 09:56:25;;;;;;;32.67;30.83;;;;;;;;;;5088094;28;20053;-62
2024/03/07 09:59:15;;;;;;;39.85;37.65;;;;;;;;;;5086587;28;20113;-62
2024/03/07 10:02:04;;;;;;;41.17;38.75;;;;;;;;;;5085748;28;20052;-62
2024/03/07 10:04:53;;;;;;;38.63;36.42;;;;;;;;;;5087505;28;20502;-62
2024/03/07 10:07:39;;;;;;;42.33;39.95;;;;;;;;;;5086077;28;20040;-62
2024/03/07 10:10:25;;;;;;;43.78;41.33;;;;;;;;;;5084710;28;20048;-62
2024/03/07 10:13:11;;;;;;;42.85;40.15;;;;;;;;;;5082939;28;20595;-63
2024/03/07 10:15:59;;;;;;;43.25;40.85;;;;;;;;;;5063567;28;20047;-63
2024/03/07 10:18:45;;;;;;;44.50;41.92;;;;;;;;;;5080213;28;20913;-63
2024/03/07 10:21:36;;;;;;;43.70;41.25;;;;;;;;;;5079266;28;20100;-63
2024/03/07 10:24:24;;;;;;;42.00;39.53;;;;;;;;;;5080950;28;20226;-63
2024/03/07 10:27:10;;;;;;;43.70;41.30;;;;;;;;;;5082107;28;20492;-62
2024/03/07 10:29:55;;;;;;;42.05;39.70;;;;;;;;;;5081139;28;20032;-63
2024/03/07 10:32:41;;;;;;;46.88;44.38;;;;;;;;;;5081376;28;20040;-62
2024/03/07 10:35:28;;;;;;;45.03;42.42;;;;;;;;;;5080568;28;20124;-63
2024/03/07 10:38:14;;;;;;;41.08;38.75;;;;;;;;;;5081674;28;20044;-62
2024/03/07 10:41:00;;;;;;;38.25;36.13;;;;;;;;;;5081897;28;20095;-62
2024/03/07 10:43:49;;;;;;;44.75;42.28;;;;;;;;;;5079210;28;20044;-63
2024/03/07 10:46:36;;;;;;;42.17;39.90;;;;;;;;;;5079419;28;20043;-63
2024/03/07 10:49:25;;;;;;;44.80;42.30;;;;;;;;;;5061989;28;20115;-63
2024/03/07 10:52:25;;;;;;;45.42;43.05;;;;;;;;;;5069911;28;20422;-63
2024/03/07 10:55:23;;;;;;;46.38;43.85;;;;;;;;;;5065890;28;20123;-62
2024/03/07 10:58:20;;;;;;;47.03;44.45;;;;;;;;;;5043909;28;20856;-63
2024/03/07 11:01:06;;;;;;;47.33;44.83;;;;;;;;;;5061701;28;20131;-63
2024/03/07 11:03:53;;;;;;;48.70;45.50;;;;;;;;;;5066371;28;20040;-63
2024/03/07 11:06:40;;;;;;;47.65;45.08;;;;;;;;;;5053560;28;20093;-63
2024/03/07 11:09:32;;;;;;;55.58;52.20;;;;;;;;;;5066440;28;20032;-63
2024/03/07 11:12:23;;;;;;;52.15;49.28;;;;;;;;;;5052671;28;20533;-63
2024/03/07 11:15:14;;;;;;;51.80;48.80;;;;;;;;;;5064343;28;20037;-63
2024/03/07 11:18:00;;;;;;;45.17;42.58;;;;;;;;;;5063990;28;20110;-63
2024/03/07 11:20:46;;;;;;;49.30;46.50;;;;;;;;;;5050901;28;20478;-62
2024/03/07 11:23:38;;;;;;;46.95;44.35;;;;;;;;;;5065669;28;20144;-63
2024/03/07 11:26:23;;;;;;;49.05;46.20;;;;;;;;;;5065378;28;20090;-63
2024/03/07 11:29:42;;;;;;;49.42;46.72;;;;;;;;;;5065044;28;20041;-62
2024/03/07 11:32:29;;;;;;;49.08;46.35;;;;;;;;;;5066335;28;20461;-62
2024/03/07 11:35:14;;;;;;;42.45;40.20;;;;;;;;;;5068475;28;20040;-60
2024/03/07 11:38:00;;;;;;;41.13;38.67;;;;;;;;;;5062597;28;20128;-63
2024/03/07 11:40:48;;;;;;;42.45;39.83;;;;;;;;;;5068139;28;20053;-62
2024/03/07 11:43:35;;;;;;;37.33;35.22;;;;;;;;;;5062972;28;20127;-62
2024/03/07 11:46:21;;;;;;;40.17;37.80;;;;;;;;;;5063685;28;20117;-63
2024/03/07 11:49:10;;;;;;;37.00;34.83;;;;;;;;;;5064836;28;20036;-62
2024/03/07 11:51:55;;;;;;;41.53;39.35;;;;;;;;;;5063743;28;20040;-63
2024/03/07 11:54:45;;;;;;;36.50;34.30;;;;;;;;;;5065377;28;20125;-63
2024/03/07 11:57:34;;;;;;;44.03;41.37;;;;;;;;;;5063875;28;20040;-62
2024/03/07 12:00:23;;;;;;;43.60;41.20;;;;;;;;;;5061673;28;20044;-63
2024/03/07 12:03:13;;;;;;;41.75;39.28;;;;;;;;;;5066032;28;20040;-62
2024/03/07 12:05:59;;;;;;;43.15;40.30;;;;;;;;;;5053202;28;20181;-60
2024/03/07 12:08:45;;;;;;;41.17;38.22;;;;;;;;;;5061295;28;20427;-60
2024/03/07 12:11:31;;;;;;;38.65;36.50;;;;;;;;;;5066918;28;20036;-62
2024/03/07 12:14:17;;;;;;;39.80;37.60;;;;;;;;;;5062021;28;20367;-62
2024/03/07 12:17:06;;;;;;;37.45;35.38;;;;;;;;;;5062435;28;20043;-61
2024/03/07 12:19:52;;;;;;;38.03;35.92;;;;;;;;;;5062517;28;20024;-63
2024/03/07 12:22:37;;;;;;;40.72;38.53;;;;;;;;;;5062925;28;20131;-61
2024/03/07 12:25:24;;;;;;;39.53;37.45;;;;;;;;;;5062304;28;20036;-61
2024/03/07 12:28:19;;;;;;;39.88;37.67;;;;;;;;;;5063351;28;20032;-62
2024/03/07 12:31:15;;;;;;;38.70;36.28;;;;;;;;;;5066053;28;20055;-63
2024/03/07 12:34:01;;;;;;;41.60;39.30;;;;;;;;;;5054599;28;20663;-64
2024/03/07 12:36:46;;;;;;;43.25;40.88;;;;;;;;;;5060691;28;20477;-62
2024/03/07 12:39:35;;;;;;;38.40;36.08;;;;;;;;;;5057526;28;20044;-63
2024/03/07 12:42:20;;;;;;;38.65;36.47;;;;;;;;;;5061394;28;20466;-64
2024/03/07 12:45:06;;;;;;;36.63;34.58;;;;;;;;;;5065738;28;20045;-63
2024/03/07 12:47:54;;;;;;;37.60;35.45;;;;;;;;;;5063106;28;20119;-63
2024/03/07 12:50:40;;;;;;;36.05;34.08;;;;;;;;;;5065092;28;20032;-63
2024/03/07 12:53:26;;;;;;;36.20;34.22;;;;;;;;;;5064299;28;20117;-63
2024/03/07 12:56:16;;;;;;;35.22;33.35;;;;;;;;;;5063793;28;20075;-63
2024/03/07 12:59:01;;;;;;;38.78;36.67;;;;;;;;;;5065609;28;20101;-64
2024/03/07 13:01:47;;;;;;;33.08;31.27;;;;;;;;;;5052405;28;20139;-62
2024/03/07 13:04:33;;;;;;;35.42;33.50;;;;;;;;;;5063720;28;20551;-62
2024/03/07 13:07:18;;;;;;;37.13;35.22;;;;;;;;;;5065361;28;20624;-62
2024/03/07 13:10:05;;;;;;;38.83;36.67;;;;;;;;;;5063534;28;20724;-64
2024/03/07 13:12:51;;;;;;;34.45;32.55;;;;;;;;;;5047922;28;20036;-64
2024/03/07 13:15:42;;;;;;;37.58;35.45;;;;;;;;;;5061322;28;20028;-64
2024/03/07 13:18:27;;;;;;;36.67;34.67;;;;;;;;;;5062428;28;20040;-63
2024/03/07 13:21:17;;;;;;;37.95;35.83;;;;;;;;;;5063071;28;20368;-62
2024/03/07 13:24:03;;;;;;;38.53;36.08;;;;;;;;;;5063719;28;20167;-61
2024/03/07 13:26:48;;;;;;;36.05;33.95;;;;;;;;;;5063815;28;20039;-61
2024/03/07 13:29:34;;;;;;;39.20;37.10;;;;;;;;;;5055957;28;20044;-61
2024/03/07 13:32:20;;;;;;;34.03;32.17;;;;;;;;;;5047120;28;20049;-61
2024/03/07 13:35:11;;;;;;;38.42;36.22;;;;;;;;;;5061155;28;20055;-61
2024/03/07 13:37:57;;;;;;;37.05;34.95;;;;;;;;;;5061531;28;20040;-60
2024/03/07 13:40:43;;;;;;;44.20;41.20;;;;;;;;;;5059167;28;20055;-61
2024/03/07 13:43:29;;;;;;;40.00;37.40;;;;;;;;;;5061047;28;20056;-62
2024/03/07 13:46:17;;;;;;;37.65;35.53;;;;;;;;;;5063200;28;20509;-62
2024/03/07 13:49:12;;;;;;;34.10;32.20;;;;;;;;;;5061292;28;20032;-61
2024/03/07 13:52:10;;;;;;;36.33;34.40;;;;;;;;;;5063861;28;20040;-63
2024/03/07 13:54:56;;;;;;;41.42;39.05;;;;;;;;;;5063296;28;21249;-62
2024/03/07 13:57:47;;;;;;;36.72;34.10;;;;;;;;;;5061484;28;20048;-62
2024/03/07 14:00:47;;;;;;;35.42;33.53;;;;;;;;;;5061336;28;20048;-61
2024/03/07 14:04:10;;;;;;;36.50;34.42;;;;;;;;;;5064546;28;20117;-61
2024/03/07 14:07:15;;;;;;;41.25;39.05;;;;;;;;;;5044805;28;20051;-61
2024/03/07 14:10:53;;;;;;;35.60;33.70;;;;;;;;;;5061936;28;20608;-62
2024/03/07 14:14:00;;;;;;;37.72;35.53;;;;;;;;;;5062071;28;20471;-63
2024/03/07 14:17:32;;;;;;;35.80;33.90;;;;;;;;;;5063653;28;20045;-61
2024/03/07 14:20:35;;;;;;;;;;;;;;;;;;5061896;28;20032;-61
2024/03/07 14:23:59;;;;;;;35.45;33.63;;;;;;;;;;5060901;28;19931;-62
2024/03/07 14:27:25;;;;;;;39.33;37.28;;;;;;;;;;5058092;28;20579;-64
2024/03/07 14:30:11;;;;;;;36.83;34.83;;;;;;;;;;5064117;28;20045;-63
2024/03/07 14:33:00;;;;;;;38.47;36.33;;;;;;;;;;5066153;28;20053;-63
2024/03/07 14:36:10;;;;;;;38.03;35.90;;;;;;;;;;5068607;28;20045;-63
2024/03/07 14:38:57;;;;;;;37.17;35.25;;;;;;;;;;5069487;28;20056;-64
2024/03/07 14:41:49;;;;;;;37.20;35.20;;;;;;;;;;5068966;28;20639;-61
2024/03/07 14:44:41;;;;;;;37.80;35.80;;;;;;;;;;5067789;28;20465;-60
2024/03/07 14:47:28;;;;;;;35.28;33.38;;;;;;;;;;5067332;28;20044;-61
2024/03/07 14:50:16;;;;;;;40.00;37.78;;;;;;;;;;5065347;28;20163;-65
2024/03/07 14:53:03;;;;;;;37.70;35.60;;;;;;;;;;5068219;28;20059;-62
2024/03/07 14:55:48;;;;;;;38.78;36.47;;;;;;;;;;5064521;28;21094;-61
2024/03/07 14:58:35;;;;;;;36.22;34.20;;;;;;;;;;5055669;28;20065;-59
2024/03/07 15:01:20;;;;;;;37.55;35.50;;;;;;;;;;5062801;28;20067;-58
2024/03/07 15:04:10;;;;;;;39.75;37.65;;;;;;;;;;5068055;28;20111;-59
2024/03/07 15:06:57;;;;;;;35.13;33.20;;;;;;;;;;5068067;28;20466;-61
2024/03/07 15:09:42;;;;;;;36.60;34.60;;;;;;;;;;5067883;28;20048;-61
2024/03/07 15:12:28;;;;;;;36.85;34.92;;;;;;;;;;5068216;28;20660;-63
2024/03/07 15:15:14;;;;;;;38.95;36.85;;;;;;;;;;5067645;28;20123;-63
2024/03/07 15:18:00;;;;;;;34.72;32.85;;;;;;;;;;5068590;28;20040;-64
2024/03/07 15:20:46;;;;;;;36.20;34.15;;;;;;;;;;5066420;28;20363;-64
2024/03/07 15:23:32;;;;;;;38.33;36.33;;;;;;;;;;5069815;28;20053;-61
2024/03/07 15:26:18;;;;;;;39.17;36.92;;;;;;;;;;5066642;28;20048;-61
2024/03/07 15:29:03;;;;;;;40.25;38.05;;;;;;;;;;5052616;28;20055;-61
2024/03/07 15:31:50;;;;;;;38.65;36.65;;;;;;;;;;5067692;28;20234;-61
2024/03/07 15:34:37;;;;;;;40.97;38.88;;;;;;;;;;5068201;28;20063;-63
2024/03/07 15:37:23;;;;;;;39.72;37.03;;;;;;;;;;5065765;28;20117;-63
2024/03/07 15:40:12;;;;;;;36.55;34.35;;;;;;;;;;5067030;28;20033;-61
2024/03/07 15:42:57;;;;;;;36.63;34.65;;;;;;;;;;5068123;28;20710;-63
2024/03/07 15:45:43;;;;;;;47.53;44.30;;;;;;;;;;5065916;28;20033;-61
2024/03/07 15:48:29;;;;;;;40.17;37.97;;;;;;;;;;5052683;28;20114;-61
2024/03/07 15:51:14;;;;;;;38.20;36.10;;;;;;;;;;5066630;28;20036;-62
2024/03/07 15:54:04;;;;;;;36.67;34.78;;;;;;;;;;5066877;28;20106;-62
2024/03/07 15:56:50;;;;;;;35.08;33.17;;;;;;;;;;5067003;28;20051;-62
2024/03/07 15:59:35;;;;;;;34.78;32.70;;;;;;;;;;5065166;28;20379;-61
2024/03/07 16:02:21;;;;;;;34.78;32.97;;;;;;;;;;5061393;28;20425;-62
2024/03/07 16:05:09;;;;;;;34.40;32.50;;;;;;;;;;5064242;28;20430;-63
2024/03/07 16:07:58;;;;;;;31.15;29.42;;;;;;;;;;5067464;28;20043;-61
2024/03/07 16:10:47;;;;;;;33.67;31.77;;;;;;;;;;5063022;28;20048;-61
2024/03/07 16:13:33;;;;;;;34.63;32.20;;;;;;;;;;5065838;28;20031;-62
2024/03/07 16:16:19;;;;;;;36.65;34.53;;;;;;;;;;5062680;28;20033;-61
2024/03/07 16:19:05;;;;;;;34.78;32.70;;;;;;;;;;5064799;28;20039;-62